createdAt,value
2022-08-16T00:00:40.545Z,2266.67
2022-08-16T00:03:13.593Z,2266.67
2022-08-16T00:05:47.840Z,2266.67
2022-08-16T00:08:36.157Z,2266.67
2022-08-16T00:11:06.092Z,2266.67
2022-08-16T00:13:41.775Z,2224.37
2022-08-16T00:17:05.595Z,2187.33
2022-08-16T00:18:58.987Z,2246.47
2022-08-16T00:21:29.173Z,2266.67
2022-08-16T00:23:58.781Z,2266.67
2022-08-16T00:26:36.409Z,2266.67
2022-08-16T00:29:15.674Z,2266.67
2022-08-16T00:31:59.597Z,2266.67
2022-08-16T00:34:43.999Z,2266.67
2022-08-16T00:37:16.999Z,2266.67
2022-08-16T00:39:57.167Z,2266.67
2022-08-16T00:42:29.540Z,2266.67
2022-08-16T00:45:06.536Z,2266.67
2022-08-16T00:47:40.224Z,2266.67
2022-08-16T00:50:11.762Z,2266.67
2022-08-16T00:52:45.862Z,2266.67
2022-08-16T00:55:22.940Z,2266.67
2022-08-16T00:57:59.003Z,2266.67
2022-08-16T01:00:29.700Z,2266.67
2022-08-16T01:02:59.679Z,2266.67
2022-08-16T01:05:28.091Z,2266.67
2022-08-16T01:07:59.630Z,2266.67
2022-08-16T01:10:33.632Z,2266.67
2022-08-16T01:13:06.871Z,2266.67
2022-08-16T01:15:43.586Z,2266.67
2022-08-16T01:18:39.067Z,2266.67
2022-08-16T01:21:33.246Z,2266.67
2022-08-16T01:24:51.552Z,2266.67
2022-08-16T01:27:06.596Z,2266.67
2022-08-16T01:29:57.244Z,2266.67
2022-08-16T01:32:33.307Z,2266.67
2022-08-16T01:35:05.756Z,2266.67
2022-08-16T01:37:43.918Z,2266.67
2022-08-16T01:40:27.377Z,2266.67
2022-08-16T01:42:56.781Z,2266.67
2022-08-16T01:45:40.841Z,2266.67
2022-08-16T01:48:19.828Z,2266.67
2022-08-16T01:51:09.032Z,2266.67
2022-08-16T01:53:40.578Z,2266.67
2022-08-16T01:56:23.344Z,2266.67
2022-08-16T01:58:54.768Z,2266.67
2022-08-16T02:01:25.921Z,2266.67
2022-08-16T02:03:58.271Z,2266.67
2022-08-16T02:06:34.738Z,2266.67
2022-08-16T02:09:11.729Z,2266.67
2022-08-16T02:11:48.174Z,2266.67
2022-08-16T02:14:22.347Z,2266.67
2022-08-16T02:16:54.395Z,2266.67
2022-08-16T02:19:59.407Z,2266.67
2022-08-16T02:22:33.535Z,2266.67
2022-08-16T02:25:06.346Z,2266.67
2022-08-16T02:27:37.478Z,2266.67
2022-08-16T02:30:08.086Z,2266.67
2022-08-16T02:32:49.070Z,2266.67
2022-08-16T02:35:23.313Z,2266.67
2022-08-16T02:37:52.619Z,2266.67
2022-08-16T02:40:23.621Z,2266.67
2022-08-16T02:42:55.954Z,2266.67
2022-08-16T02:45:27.971Z,2266.67
2022-08-16T02:48:00.345Z,2266.67
2022-08-16T02:50:55.124Z,2266.67
2022-08-16T02:53:34.242Z,2266.67
2022-08-16T02:56:02.356Z,2266.67
2022-08-16T02:58:33.712Z,2266.67
2022-08-16T03:01:02.223Z,2266.67
2022-08-16T03:04:41.329Z,2266.67
2022-08-16T03:06:42.285Z,2266.67
2022-08-16T03:09:16.425Z,2266.67
2022-08-16T03:11:49.466Z,2266.67
2022-08-16T03:14:21.113Z,2266.67
2022-08-16T03:17:00.119Z,2266.67
2022-08-16T03:19:46.765Z,2266.67
2022-08-16T03:22:19.163Z,2266.67
2022-08-16T03:24:57.427Z,2266.67
2022-08-16T03:27:31.321Z,2266.67
2022-08-16T03:30:16.044Z,2266.67
2022-08-16T03:32:51.539Z,2266.67
2022-08-16T03:35:23.286Z,2266.67
2022-08-16T03:38:03.217Z,2266.67
2022-08-16T03:40:40.001Z,2266.67
2022-08-16T03:43:19.828Z,2266.67
2022-08-16T03:45:53.592Z,2266.67
2022-08-16T03:48:36.442Z,2266.67
2022-08-16T03:51:12.883Z,2266.67
2022-08-16T03:54:00.927Z,2266.67
2022-08-16T03:56:30.347Z,2266.67
2022-08-16T03:58:59.867Z,2266.67
2022-08-16T04:01:33.604Z,2266.67
2022-08-16T04:04:02.128Z,2266.67
2022-08-16T04:06:31.251Z,2266.67
2022-08-16T04:08:59.019Z,2266.67
2022-08-16T04:11:27.148Z,2266.67
2022-08-16T04:14:08.582Z,2227.67
2022-08-16T04:16:55.942Z,2139.23
2022-08-16T04:19:35.367Z,2236.80
2022-08-16T04:22:08.435Z,2266.67
2022-08-16T04:24:43.835Z,2266.67
2022-08-16T04:27:24.484Z,2266.67
2022-08-16T04:29:52.811Z,2266.67
2022-08-16T04:32:22.365Z,2266.67
2022-08-16T04:34:54.276Z,2266.67
2022-08-16T04:37:23.190Z,2266.67
2022-08-16T04:39:58.528Z,2266.67
2022-08-16T04:42:29.618Z,2266.67
2022-08-16T04:45:02.065Z,2266.67
2022-08-16T04:47:36.170Z,2266.67
2022-08-16T04:50:11.471Z,2266.67
2022-08-16T04:52:59.126Z,2159.67
2022-08-16T04:55:37.870Z,1939.33
2022-08-16T04:58:38.407Z,1858.70
2022-08-16T05:00:59.094Z,1899.10
2022-08-16T05:03:29.523Z,2153.13
2022-08-16T05:06:04.854Z,2266.67
2022-08-16T05:08:35.169Z,2266.67
2022-08-16T05:11:14.040Z,2266.67
2022-08-16T05:13:44.743Z,2266.67
2022-08-16T05:16:22.945Z,2266.67
2022-08-16T05:18:59.432Z,2266.67
2022-08-16T05:21:35.730Z,2266.67
2022-08-16T05:24:07.471Z,2266.67
2022-08-16T05:26:43.221Z,2266.67
2022-08-16T05:29:18.215Z,2266.67
2022-08-16T05:32:01.984Z,2266.67
2022-08-16T05:34:32.720Z,2266.67
2022-08-16T05:37:01.038Z,2266.67
2022-08-16T05:39:40.780Z,2266.67
2022-08-16T05:42:09.552Z,2200.00
2022-08-16T05:44:39.079Z,2266.67
2022-08-16T05:47:08.006Z,2266.67
2022-08-16T05:49:39.937Z,2266.67
2022-08-16T05:52:13.855Z,2266.67
2022-08-16T05:54:58.427Z,2266.67
2022-08-16T05:57:34.473Z,2266.67
2022-08-16T06:00:09.188Z,2266.67
2022-08-16T06:02:40.629Z,1840.73
2022-08-16T06:05:25.496Z,1899.37
2022-08-16T06:07:58.359Z,1949.00
2022-08-16T06:10:33.469Z,1251.77
2022-08-16T06:13:04.755Z,2266.67
2022-08-16T06:15:33.027Z,2266.67
2022-08-16T06:18:03.878Z,2266.67
2022-08-16T06:20:35.038Z,2266.67
2022-08-16T06:23:16.728Z,2266.67
2022-08-16T06:26:07.964Z,2266.67
2022-08-16T06:28:40.269Z,2266.67
2022-08-16T06:31:15.704Z,2266.67
2022-08-16T06:33:47.648Z,2266.67
2022-08-16T06:36:21.952Z,2266.67
2022-08-16T06:39:09.528Z,2266.67
2022-08-16T06:41:55.898Z,2266.67
2022-08-16T06:44:47.051Z,2266.67
2022-08-16T06:47:53.093Z,2266.67
2022-08-16T06:50:29.362Z,2266.67
2022-08-16T06:53:08.308Z,2266.67
2022-08-16T06:55:40.187Z,2266.67
2022-08-16T06:58:22.692Z,2266.67
2022-08-16T07:01:09.754Z,2266.67
2022-08-16T07:03:54.902Z,2266.67
2022-08-16T07:06:26.612Z,2266.67
2022-08-16T07:08:59.005Z,2266.67
2022-08-16T07:11:45.707Z,2266.67
2022-08-16T07:14:23.832Z,2266.67
2022-08-16T07:16:54.015Z,2266.67
2022-08-16T07:19:22.649Z,2266.67
2022-08-16T07:22:37.511Z,2266.67
2022-08-16T07:24:59.732Z,2266.67
2022-08-16T07:27:28.611Z,2266.67
2022-08-16T07:30:46.020Z,2266.67
2022-08-16T07:32:55.505Z,2266.67
2022-08-16T07:35:23.871Z,2266.67
2022-08-16T07:37:52.220Z,2266.67
2022-08-16T07:40:57.912Z,2266.67
2022-08-16T07:43:17.140Z,2266.67
2022-08-16T07:45:51.112Z,2266.67
2022-08-16T07:48:22.249Z,2266.67
2022-08-16T07:50:59.576Z,2266.67
2022-08-16T07:53:32.154Z,2266.67
2022-08-16T07:56:01.849Z,2266.67
2022-08-16T07:58:36.852Z,2266.67
2022-08-16T08:01:16.507Z,2266.67
2022-08-16T08:03:55.946Z,2266.67
2022-08-16T08:06:31.395Z,2266.67
2022-08-16T08:09:05.099Z,2266.67
2022-08-16T08:11:35.935Z,2266.67
2022-08-16T08:14:08.047Z,2266.67
2022-08-16T08:16:45.541Z,2266.67
2022-08-16T08:19:21.599Z,2266.67
2022-08-16T08:21:59.117Z,2266.67
2022-08-16T08:24:39.920Z,2266.67
2022-08-16T08:27:23.058Z,2266.67
2022-08-16T08:30:49.380Z,2266.67
2022-08-16T08:32:57.969Z,2266.67
2022-08-16T08:35:29.398Z,2266.67
2022-08-16T08:37:59.217Z,2266.67
2022-08-16T08:40:30.459Z,2266.67
2022-08-16T08:43:11.513Z,2266.67
2022-08-16T08:45:47.128Z,2266.67
2022-08-16T08:48:34.255Z,2266.67
2022-08-16T08:51:10.339Z,2266.67
2022-08-16T08:54:06.843Z,2266.67
2022-08-16T08:56:45.835Z,2266.67
2022-08-16T08:59:34.184Z,2266.67
2022-08-16T09:02:09.977Z,2266.67
2022-08-16T09:04:47.956Z,2266.67
2022-08-16T09:07:19.356Z,2266.67
2022-08-16T09:09:48.731Z,2266.67
2022-08-16T09:12:46.612Z,2266.67
2022-08-16T09:15:24.082Z,2266.67
2022-08-16T09:17:56.969Z,2266.67
2022-08-16T09:20:29.351Z,2266.67
2022-08-16T09:22:57.751Z,2266.67
2022-08-16T09:25:35.326Z,2266.67
2022-08-16T09:28:10.026Z,2266.67
2022-08-16T09:30:45.369Z,2266.67
2022-08-16T09:33:20.018Z,2266.67
2022-08-16T09:35:53.588Z,2266.67
2022-08-16T09:38:32.100Z,2266.67
2022-08-16T09:41:01.631Z,2266.67
2022-08-16T09:43:59.132Z,2266.67
2022-08-16T09:46:48.487Z,2266.67
2022-08-16T09:49:08.444Z,2266.67
2022-08-16T09:51:37.529Z,2266.67
2022-08-16T09:54:09.441Z,2266.67
2022-08-16T09:56:39.581Z,2266.67
2022-08-16T09:59:20.954Z,2266.67
2022-08-16T10:01:52.011Z,2266.67
2022-08-16T10:04:29.669Z,2266.67
2022-08-16T10:09:44.965Z,2266.67
2022-08-16T10:12:42.770Z,2266.67
2022-08-16T10:15:15.448Z,2266.67
2022-08-16T10:18:00.639Z,2266.67
2022-08-16T10:20:31.689Z,2266.67
2022-08-16T10:23:05.788Z,2266.67
2022-08-16T10:27:18.017Z,2266.67
2022-08-16T10:28:32.027Z,2266.67
2022-08-16T10:31:03.683Z,2266.67
2022-08-16T10:33:35.119Z,2266.67
2022-08-16T10:36:09.592Z,2266.67
2022-08-16T10:38:42.319Z,2266.67
2022-08-16T10:41:16.111Z,2266.67
2022-08-16T10:43:44.785Z,2266.67
2022-08-16T10:46:39.995Z,2266.67
2022-08-16T10:49:05.205Z,2266.67
2022-08-16T10:52:00.701Z,2266.67
2022-08-16T10:54:29.086Z,2266.67
2022-08-16T10:56:58.177Z,2266.67
2022-08-16T10:59:38.297Z,2266.67
2022-08-16T11:02:57.694Z,2266.67
2022-08-16T11:05:11.607Z,2266.67
2022-08-16T11:07:42.592Z,2266.67
2022-08-16T11:10:20.998Z,2266.67
2022-08-16T11:15:55.811Z,2266.67
2022-08-16T11:18:48.308Z,2266.67
2022-08-16T11:21:28.775Z,2266.67
2022-08-16T11:23:59.670Z,2266.67
2022-08-16T11:26:29.735Z,2266.67
2022-08-16T11:29:15.123Z,2266.67
2022-08-16T11:31:45.715Z,2266.67
2022-08-16T11:34:21.512Z,2266.67
2022-08-16T11:36:53.719Z,2266.67
2022-08-16T11:39:28.240Z,2266.67
2022-08-16T11:41:56.356Z,2266.67
2022-08-16T11:44:52.938Z,2266.67
2022-08-16T11:47:14.240Z,2266.67
2022-08-16T11:49:42.005Z,2266.67
2022-08-16T11:52:11.095Z,2266.67
2022-08-16T11:54:40.224Z,2266.67
2022-08-16T11:57:09.359Z,2266.67
2022-08-16T11:59:39.871Z,2266.67
2022-08-16T12:02:31.351Z,2266.67
2022-08-16T12:04:58.029Z,2266.67
2022-08-16T12:07:27.300Z,2266.67
2022-08-16T12:09:56.250Z,2266.67
2022-08-16T12:12:24.407Z,2266.67
2022-08-16T12:15:00.017Z,2266.67
2022-08-16T12:17:29.069Z,2266.67
2022-08-16T12:19:59.930Z,2266.67
2022-08-16T12:22:29.734Z,2266.67
2022-08-16T12:25:02.338Z,2266.67
2022-08-16T12:27:33.069Z,2266.67
2022-08-16T12:30:00.832Z,2266.67
2022-08-16T12:32:39.514Z,2266.67
2022-08-16T12:35:13.037Z,2266.67
2022-08-16T12:37:43.165Z,2266.67
2022-08-16T12:40:24.591Z,2266.67
2022-08-16T12:42:58.737Z,2266.67
2022-08-16T12:45:29.275Z,2266.67
2022-08-16T12:48:33.741Z,2266.67
2022-08-16T12:51:03.943Z,2266.67
2022-08-16T12:53:34.627Z,2266.67
2022-08-16T12:56:11.347Z,2266.67
2022-08-16T12:58:48.912Z,2266.67
2022-08-16T13:01:19.596Z,2266.67
2022-08-16T13:04:08.214Z,2266.67
2022-08-16T13:06:39.998Z,2266.67
2022-08-16T13:09:20.888Z,2266.67
2022-08-16T13:12:00.001Z,2266.67
2022-08-16T13:14:32.132Z,2266.67
2022-08-16T13:17:01.996Z,2266.67
2022-08-16T13:19:56.002Z,2266.67
2022-08-16T13:22:19.611Z,2266.67
2022-08-16T13:24:50.573Z,2266.67
2022-08-16T13:27:19.125Z,2266.67
2022-08-16T13:29:57.382Z,2266.67
2022-08-16T13:32:39.357Z,2266.67
2022-08-16T13:35:11.765Z,2266.67
2022-08-16T13:37:41.289Z,2266.67
2022-08-16T13:40:16.311Z,2266.67
2022-08-16T13:42:48.392Z,2266.67
2022-08-16T13:45:19.438Z,2266.67
2022-08-16T13:47:52.980Z,2266.67
2022-08-16T13:50:31.191Z,2266.67
2022-08-16T13:53:08.936Z,2266.67
2022-08-16T13:55:38.040Z,2266.67
2022-08-16T13:58:36.778Z,2266.67
2022-08-16T14:00:57.230Z,2266.67
2022-08-16T14:03:25.037Z,2266.67
2022-08-16T14:05:53.078Z,2266.67
2022-08-16T14:08:25.202Z,2266.67
2022-08-16T14:10:56.335Z,2266.67
2022-08-16T14:13:24.619Z,2266.67
2022-08-16T14:15:52.780Z,2266.67
2022-08-16T14:18:20.981Z,2266.67
2022-08-16T14:20:51.265Z,2266.67
2022-08-16T14:23:23.667Z,2266.67
2022-08-16T14:25:53.932Z,2266.67
2022-08-16T14:28:23.786Z,2266.67
2022-08-16T14:30:54.252Z,2266.67
2022-08-16T14:33:22.042Z,2266.67
2022-08-16T14:35:50.826Z,2266.67
2022-08-16T14:38:23.979Z,2266.67
2022-08-16T14:40:55.045Z,2266.67
2022-08-16T14:43:25.215Z,2266.67
2022-08-16T14:45:54.831Z,2266.67
2022-08-16T14:48:25.871Z,2266.67
2022-08-16T14:50:54.728Z,2266.67
2022-08-16T14:53:24.735Z,2266.67
2022-08-16T14:55:55.056Z,2266.67
2022-08-16T14:58:35.026Z,2266.67
2022-08-16T15:01:06.485Z,2266.67
2022-08-16T15:03:38.084Z,2266.67
2022-08-16T15:06:10.426Z,2266.67
2022-08-16T15:08:42.226Z,2266.67
2022-08-16T15:11:10.204Z,2266.67
2022-08-16T15:13:40.973Z,2266.67
2022-08-16T15:16:09.088Z,2266.67
2022-08-16T15:18:36.794Z,2266.67
2022-08-16T15:21:08.438Z,2266.67
2022-08-16T15:23:36.817Z,2266.67
2022-08-16T15:26:08.586Z,2266.67
2022-08-16T15:28:38.113Z,2266.67
2022-08-16T15:31:10.348Z,2266.67
2022-08-16T15:33:45.426Z,2266.67
2022-08-16T15:36:21.062Z,2266.67
2022-08-16T15:39:02.178Z,2266.67
2022-08-16T15:42:01.085Z,2266.67
2022-08-16T15:44:44.137Z,2266.67
2022-08-16T15:47:21.269Z,2266.67
2022-08-16T15:49:54.714Z,2266.67
2022-08-16T15:52:29.714Z,2266.67
2022-08-16T15:54:59.396Z,2266.67
2022-08-16T15:57:37.013Z,2266.67
2022-08-16T16:00:14.589Z,2266.67
2022-08-16T16:02:45.158Z,2266.67
2022-08-16T16:05:13.948Z,2266.67
2022-08-16T16:07:56.521Z,2266.67
2022-08-16T16:10:32.359Z,2266.67
2022-08-16T16:13:03.813Z,2266.67
2022-08-16T16:15:34.858Z,2266.67
2022-08-16T16:18:10.037Z,2266.67
2022-08-16T16:20:39.706Z,2266.67
2022-08-16T16:23:11.146Z,2266.67
2022-08-16T16:25:43.653Z,2266.67
2022-08-16T16:29:05.180Z,2266.67
2022-08-16T16:31:01.549Z,2266.67
2022-08-16T16:33:33.944Z,2266.67
2022-08-16T16:36:05.686Z,2266.67
2022-08-16T16:38:34.877Z,2266.67
2022-08-16T16:41:08.898Z,2266.67
2022-08-16T16:43:38.045Z,2266.67
2022-08-16T16:46:38.986Z,2266.67
2022-08-16T16:48:59.941Z,2266.67
2022-08-16T16:51:28.055Z,2266.67
2022-08-16T16:53:57.077Z,2266.67
2022-08-16T16:56:31.353Z,2266.67
2022-08-16T16:59:06.126Z,2266.67
2022-08-16T17:01:59.167Z,2266.67
2022-08-16T17:04:32.745Z,2266.67
2022-08-16T17:07:02.382Z,2266.67
2022-08-16T17:09:30.522Z,2266.67
2022-08-16T17:11:59.403Z,2266.67
2022-08-16T17:14:33.836Z,2266.67
2022-08-16T17:17:04.856Z,2266.67
2022-08-16T17:19:34.411Z,2266.67
2022-08-16T17:22:14.760Z,2266.67
2022-08-16T17:24:45.493Z,2266.67
2022-08-16T17:27:32.031Z,2266.67
2022-08-16T17:30:01.567Z,2266.67
2022-08-16T17:32:34.401Z,2266.67
2022-08-16T17:35:19.882Z,2266.67
2022-08-16T17:37:51.952Z,2266.67
2022-08-16T17:40:41.612Z,2266.67
2022-08-16T17:43:13.291Z,2266.67
2022-08-16T17:45:43.140Z,2266.67
2022-08-16T17:48:12.738Z,2266.67
2022-08-16T17:50:42.988Z,2266.67
2022-08-16T17:53:12.434Z,2266.67
2022-08-16T17:55:42.929Z,2266.67
2022-08-16T17:58:22.542Z,2266.67
2022-08-16T18:00:53.863Z,2266.67
2022-08-16T18:04:02.407Z,2266.67
2022-08-16T18:06:18.467Z,2266.67
2022-08-16T18:08:48.973Z,2266.67
2022-08-16T18:11:26.221Z,2266.67
2022-08-16T18:13:55.655Z,2266.67
2022-08-16T18:16:23.700Z,2266.67
2022-08-16T18:18:51.571Z,2266.67
2022-08-16T18:21:46.884Z,2266.67
2022-08-16T18:24:16.163Z,2266.67
2022-08-16T18:26:44.202Z,2266.67
2022-08-16T18:29:12.352Z,2266.67
2022-08-16T18:31:40.502Z,2266.67
2022-08-16T18:34:08.406Z,2266.67
2022-08-16T18:36:38.105Z,2266.67
2022-08-16T18:39:06.360Z,2266.67
2022-08-16T18:41:37.009Z,2266.67
2022-08-16T18:44:26.391Z,2266.67
2022-08-16T18:46:56.369Z,2266.67
2022-08-16T18:49:24.230Z,2266.67
2022-08-16T18:51:57.265Z,2266.67
2022-08-16T18:54:26.232Z,2266.67
2022-08-16T18:56:56.649Z,2266.67
2022-08-16T18:59:26.934Z,2266.67
2022-08-16T19:01:59.725Z,2266.67
2022-08-16T19:04:50.601Z,2266.67
2022-08-16T19:07:20.882Z,2266.67
2022-08-16T19:09:48.767Z,2266.67
2022-08-16T19:12:47.154Z,2266.67
2022-08-16T19:15:11.995Z,2266.67
2022-08-16T19:17:41.321Z,2266.67
2022-08-16T19:20:11.280Z,2266.67
2022-08-16T19:25:47.653Z,2266.67
2022-08-16T19:28:49.332Z,2266.67
2022-08-16T19:31:13.185Z,2266.67
2022-08-16T19:33:47.188Z,2266.67
2022-08-16T19:36:31.244Z,2266.67
2022-08-16T19:39:04.385Z,2266.67
2022-08-16T19:41:36.058Z,2266.67
2022-08-16T19:44:04.905Z,2266.67
2022-08-16T19:46:32.815Z,2266.67
2022-08-16T19:49:00.988Z,2266.67
2022-08-16T19:51:29.328Z,2266.67
2022-08-16T19:53:57.159Z,2266.67
2022-08-16T19:56:26.806Z,2266.67
2022-08-16T19:59:18.619Z,2266.67
2022-08-16T20:01:43.636Z,2266.67
2022-08-16T20:04:13.507Z,2266.67
2022-08-16T20:06:41.637Z,2266.67
2022-08-16T20:09:10.991Z,2266.67
2022-08-16T20:11:45.263Z,2266.67
2022-08-16T20:14:25.173Z,2266.67
2022-08-16T20:16:55.401Z,2266.67
2022-08-16T20:19:23.408Z,2266.67
2022-08-16T20:21:51.254Z,2266.67
2022-08-16T20:24:36.320Z,2266.67
2022-08-16T20:27:09.469Z,2266.67
2022-08-16T20:29:39.416Z,2266.67
2022-08-16T20:32:09.218Z,2266.67
2022-08-16T20:34:37.295Z,2266.67
2022-08-16T20:37:06.359Z,2266.67
2022-08-16T20:39:34.689Z,2266.67
2022-08-16T20:42:02.582Z,2266.67
2022-08-16T20:44:32.032Z,2266.67
2022-08-16T20:46:59.880Z,2266.67
2022-08-16T20:49:28.362Z,2266.67
2022-08-16T20:51:59.580Z,2266.67
2022-08-16T20:54:28.707Z,2266.67
2022-08-16T20:57:02.211Z,2266.67
2022-08-16T20:59:31.838Z,2266.67
2022-08-16T21:01:59.887Z,2266.67
2022-08-16T21:04:29.750Z,2266.67
2022-08-16T21:06:59.256Z,2266.67
2022-08-16T21:09:31.406Z,2266.67
2022-08-16T21:12:01.798Z,2266.67
2022-08-16T21:14:33.943Z,2266.67
2022-08-16T21:17:02.302Z,2266.67
2022-08-16T21:19:30.412Z,2266.67
2022-08-16T21:21:58.579Z,2266.67
2022-08-16T21:24:26.533Z,2266.67
2022-08-16T21:26:56.149Z,2266.67
2022-08-16T21:29:27.279Z,2266.67
2022-08-16T21:32:14.198Z,2266.67
2022-08-16T21:34:43.236Z,2266.67
2022-08-16T21:37:11.484Z,2266.67
2022-08-16T21:39:39.730Z,2266.67
2022-08-16T21:42:12.276Z,2266.67
2022-08-16T21:44:40.526Z,2266.67
2022-08-16T21:47:08.458Z,2266.67
2022-08-16T21:49:38.164Z,2266.67
2022-08-16T21:52:07.600Z,2266.67
2022-08-16T21:54:36.592Z,2266.67
2022-08-16T21:57:10.142Z,2266.67
2022-08-16T21:59:38.725Z,2266.67
2022-08-16T22:02:07.238Z,2266.67
2022-08-16T22:04:37.316Z,2266.67
2022-08-16T22:07:08.108Z,2266.67
2022-08-16T22:09:36.089Z,2266.67
2022-08-16T22:12:04.029Z,2266.67
2022-08-16T22:14:31.817Z,2266.67
2022-08-16T22:16:59.627Z,2266.67
2022-08-16T22:19:27.442Z,2266.67
2022-08-16T22:21:55.622Z,2266.67
2022-08-16T22:24:24.709Z,2266.67
2022-08-16T22:26:52.520Z,2266.67
2022-08-16T22:29:20.389Z,2266.67
2022-08-16T22:31:48.273Z,2266.67
2022-08-16T22:34:16.266Z,2266.67
2022-08-16T22:36:44.317Z,2266.67
2022-08-16T22:39:14.746Z,2266.67
2022-08-16T22:41:45.732Z,2266.67
2022-08-16T22:44:14.013Z,2266.67
2022-08-16T22:46:42.214Z,2266.67
2022-08-16T22:49:10.631Z,2266.67
2022-08-16T22:51:39.503Z,2266.67
2022-08-16T22:54:47.371Z,2266.67
2022-08-16T22:56:57.608Z,2266.67
2022-08-16T22:59:25.900Z,2266.67
2022-08-16T23:01:53.875Z,2266.67
2022-08-16T23:04:22.589Z,2266.67
2022-08-16T23:06:50.649Z,1734.50
2022-08-16T23:09:18.544Z,1780.07
2022-08-16T23:11:46.615Z,1703.20
2022-08-16T23:14:16.283Z,1673.50
2022-08-16T23:16:47.172Z,1649.10
2022-08-16T23:19:16.667Z,1663.33
2022-08-16T23:21:46.823Z,2266.67
2022-08-16T23:24:19.243Z,2266.67
2022-08-16T23:26:49.311Z,2266.67
2022-08-16T23:29:23.865Z,2266.67
2022-08-16T23:31:56.021Z,2266.67
2022-08-16T23:34:24.460Z,2266.67
2022-08-16T23:36:52.241Z,1882.73
2022-08-16T23:39:20.085Z,1961.23
2022-08-16T23:41:49.144Z,1772.73
2022-08-16T23:44:55.588Z,2266.67
2022-08-16T23:47:06.923Z,2266.67
2022-08-16T23:49:58.038Z,1809.83
2022-08-16T23:52:45.242Z,1921.90
2022-08-16T23:55:10.745Z,1894.23
2022-08-16T23:57:39.093Z,1728.63
